createdAt,value
2023-02-18T00:02:23.016Z,10.10
2023-02-18T00:04:49.719Z,10.10
2023-02-18T00:07:16.403Z,10.20
2023-02-18T00:09:43.049Z,10.20
2023-02-18T00:12:09.680Z,10.20
2023-02-18T00:14:36.316Z,10.20
2023-02-18T00:17:02.965Z,10.30
2023-02-18T00:19:29.682Z,10.20
2023-02-18T00:21:56.376Z,10.20
2023-02-18T00:24:23.202Z,10.30
2023-02-18T00:26:53.595Z,10.30
2023-02-18T00:29:20.622Z,10.20
2023-02-18T00:31:47.448Z,10.30
2023-02-18T00:34:14.417Z,10.30
2023-02-18T00:36:41.327Z,10.30
2023-02-18T00:39:10.006Z,10.40
2023-02-18T00:41:37.577Z,10.40
2023-02-18T00:44:04.835Z,10.50
2023-02-18T00:46:31.713Z,10.50
2023-02-18T00:48:58.435Z,10.50
2023-02-18T00:51:25.588Z,10.50
2023-02-18T00:53:52.808Z,10.50
2023-02-18T00:56:19.701Z,10.50
2023-02-18T00:58:46.518Z,10.50
2023-02-18T01:01:13.640Z,10.60
2023-02-18T01:03:41.884Z,10.60
2023-02-18T01:06:11.085Z,10.60
2023-02-18T01:08:39.745Z,10.60
2023-02-18T01:11:08.245Z,10.50
2023-02-18T01:13:35.755Z,10.50
2023-02-18T01:16:02.709Z,10.50
2023-02-18T01:18:29.895Z,10.50
2023-02-18T01:20:57.414Z,10.60
2023-02-18T01:23:24.432Z,10.60
2023-02-18T01:25:51.704Z,10.60
2023-02-18T01:28:19.111Z,10.50
2023-02-18T01:30:45.814Z,10.50
2023-02-18T01:33:12.516Z,10.50
2023-02-18T01:35:40.875Z,10.50
2023-02-18T01:38:07.994Z,10.50
2023-02-18T01:40:34.878Z,10.60
2023-02-18T01:43:01.661Z,10.60
2023-02-18T01:45:34.593Z,10.60
2023-02-18T01:48:10.263Z,10.70
2023-02-18T01:50:41.646Z,10.60
2023-02-18T01:53:08.755Z,10.60
2023-02-18T01:55:36.885Z,10.60
2023-02-18T01:58:03.961Z,10.60
2023-02-18T02:00:32.699Z,10.60
2023-02-18T02:02:59.484Z,10.60
2023-02-18T02:05:32.082Z,10.60
2023-02-18T02:07:59.530Z,10.50
2023-02-18T02:10:37.111Z,10.50
2023-02-18T02:13:09.489Z,10.40
2023-02-18T02:15:41.595Z,10.40
2023-02-18T02:18:12.310Z,10.40
2023-02-18T02:21:10.057Z,10.30
2023-02-18T02:23:45.815Z,10.30
2023-02-18T02:26:49.286Z,10.40
2023-02-18T02:29:38.432Z,10.30
2023-02-18T02:32:14.324Z,10.30
2023-02-18T02:35:06.642Z,10.20
2023-02-18T02:37:41.889Z,10.00
2023-02-18T02:40:28.450Z,10.10
2023-02-18T02:43:12.949Z,10.10
2023-02-18T02:46:12.307Z,10.00
2023-02-18T02:49:08.357Z,10.00
2023-02-18T02:51:54.279Z,10.00
2023-02-18T02:54:24.259Z,10.00
2023-02-18T02:57:04.256Z,10.00
2023-02-18T02:59:31.366Z,9.90
2023-02-18T03:02:33.896Z,10.00
2023-02-18T03:05:03.518Z,10.00
2023-02-18T03:07:51.966Z,10.00
2023-02-18T03:10:44.174Z,10.00
2023-02-18T03:13:46.413Z,9.90
2023-02-18T03:16:13.080Z,9.90
2023-02-18T03:18:42.736Z,9.90
2023-02-18T03:21:11.849Z,9.90
2023-02-18T03:24:00.238Z,9.90
2023-02-18T03:26:30.338Z,9.90
2023-02-18T03:29:01.282Z,10.00
2023-02-18T03:31:30.146Z,10.00
2023-02-18T03:34:04.162Z,10.00
2023-02-18T03:36:32.910Z,10.00
2023-02-18T03:39:04.597Z,10.00
2023-02-18T03:41:31.476Z,10.00
2023-02-18T03:44:04.671Z,10.00
2023-02-18T03:46:32.258Z,10.00
2023-02-18T03:48:59.071Z,10.00
2023-02-18T03:51:25.733Z,10.00
2023-02-18T03:53:52.400Z,10.10
2023-02-18T03:56:21.354Z,10.10
2023-02-18T03:58:48.269Z,10.20
2023-02-18T04:01:15.406Z,10.10
2023-02-18T04:03:42.267Z,10.20
2023-02-18T04:06:09.681Z,10.20
2023-02-18T04:08:36.716Z,10.20
2023-02-18T04:11:05.026Z,10.20
2023-02-18T04:13:32.264Z,10.20
2023-02-18T04:15:58.954Z,10.30
2023-02-18T04:18:25.614Z,10.30
2023-02-18T04:20:52.327Z,10.40
2023-02-18T04:23:19.109Z,10.40
2023-02-18T04:25:45.857Z,10.40
2023-02-18T04:28:15.283Z,10.50
2023-02-18T04:30:42.458Z,10.50
2023-02-18T04:33:09.272Z,10.50
2023-02-18T04:35:36.779Z,10.50
2023-02-18T04:38:03.763Z,10.50
2023-02-18T04:40:30.704Z,10.60
2023-02-18T04:42:58.282Z,10.60
2023-02-18T04:45:26.035Z,10.60
2023-02-18T04:47:53.125Z,10.60
2023-02-18T04:50:21.533Z,10.60
2023-02-18T04:52:48.220Z,10.70
2023-02-18T04:55:14.939Z,10.60
2023-02-18T04:57:41.603Z,10.60
2023-02-18T05:00:11.270Z,10.60
2023-02-18T05:02:38.238Z,10.70
2023-02-18T05:05:05.850Z,10.70
2023-02-18T05:07:32.647Z,10.70
2023-02-18T05:09:59.298Z,10.70
2023-02-18T05:12:26.092Z,10.70
2023-02-18T05:14:52.751Z,10.70
2023-02-18T05:17:19.447Z,10.70
2023-02-18T05:19:46.117Z,10.70
2023-02-18T05:22:12.764Z,10.70
2023-02-18T05:24:39.439Z,10.70
2023-02-18T05:27:06.063Z,10.70
2023-02-18T05:29:32.723Z,10.70
2023-02-18T05:31:59.398Z,10.80
2023-02-18T05:34:26.119Z,10.80
2023-02-18T05:36:52.755Z,10.80
2023-02-18T05:39:19.435Z,10.80
2023-02-18T05:41:46.088Z,10.80
2023-02-18T05:44:30.897Z,10.80
2023-02-18T05:46:59.267Z,10.80
2023-02-18T05:49:26.078Z,10.80
2023-02-18T05:51:52.744Z,10.70
2023-02-18T05:54:19.696Z,10.70
2023-02-18T05:56:46.470Z,10.70
2023-02-18T05:59:13.826Z,10.60
2023-02-18T06:01:40.888Z,10.70
2023-02-18T06:04:07.853Z,10.60
2023-02-18T06:06:35.137Z,10.60
2023-02-18T06:09:02.060Z,10.70
2023-02-18T06:11:28.718Z,10.70
2023-02-18T06:13:55.395Z,10.60
2023-02-18T06:16:22.141Z,10.70
2023-02-18T06:18:48.850Z,10.60
2023-02-18T06:21:15.748Z,10.60
2023-02-18T06:23:42.415Z,10.60
2023-02-18T06:26:09.519Z,10.60
2023-02-18T06:28:36.396Z,10.70
2023-02-18T06:31:03.340Z,10.60
2023-02-18T06:33:30.096Z,10.60
2023-02-18T06:36:03.187Z,10.60
2023-02-18T06:38:30.018Z,10.60
2023-02-18T06:40:56.724Z,10.60
2023-02-18T06:43:23.408Z,10.60
2023-02-18T06:45:50.223Z,10.60
2023-02-18T06:48:17.032Z,10.60
2023-02-18T06:50:43.807Z,10.60
2023-02-18T06:53:10.961Z,10.60
2023-02-18T06:55:38.687Z,10.60
2023-02-18T06:58:05.729Z,10.60
2023-02-18T07:00:32.500Z,10.60
2023-02-18T07:02:59.249Z,10.70
2023-02-18T07:05:26.146Z,10.70
2023-02-18T07:07:52.833Z,10.70
2023-02-18T07:10:19.756Z,10.70
2023-02-18T07:12:46.587Z,10.70
2023-02-18T07:15:13.280Z,10.70
2023-02-18T07:17:39.964Z,10.70
2023-02-18T07:20:07.480Z,10.80
2023-02-18T07:22:34.130Z,10.80
2023-02-18T07:25:00.838Z,10.80
2023-02-18T07:27:27.599Z,10.80
2023-02-18T07:29:54.957Z,10.80
2023-02-18T07:32:21.806Z,10.80
2023-02-18T07:34:48.451Z,10.80
2023-02-18T07:37:15.097Z,10.70
2023-02-18T07:39:43.194Z,10.70
2023-02-18T07:42:11.108Z,10.70
2023-02-18T07:44:38.385Z,10.70
2023-02-18T07:47:06.806Z,10.70
2023-02-18T07:49:34.624Z,10.70
2023-02-18T07:52:01.866Z,10.60
2023-02-18T07:54:29.292Z,10.60
2023-02-18T07:56:55.930Z,10.60
2023-02-18T07:59:22.748Z,10.60
2023-02-18T08:01:49.409Z,10.60
2023-02-18T08:04:16.329Z,10.60
2023-02-18T08:06:48.376Z,10.60
2023-02-18T08:09:16.041Z,10.60
2023-02-18T08:11:43.002Z,10.60
2023-02-18T08:14:09.772Z,10.60
2023-02-18T08:16:36.525Z,10.60
2023-02-18T08:19:04.012Z,10.60
2023-02-18T08:21:31.237Z,10.60
2023-02-18T08:23:59.410Z,10.70
2023-02-18T08:26:26.674Z,10.70
2023-02-18T08:28:53.368Z,10.70
2023-02-18T08:31:25.031Z,10.70
2023-02-18T08:33:53.705Z,10.70
2023-02-18T08:36:21.020Z,10.60
2023-02-18T08:38:47.733Z,10.60
2023-02-18T08:41:14.894Z,10.60
2023-02-18T08:43:42.542Z,10.60
2023-02-18T08:46:15.802Z,10.60
2023-02-18T08:48:44.317Z,10.60
2023-02-18T08:51:22.279Z,10.60
2023-02-18T08:53:49.862Z,10.60
2023-02-18T08:56:17.703Z,10.50
2023-02-18T08:58:44.519Z,10.50
2023-02-18T09:01:13.027Z,10.50
2023-02-18T09:03:40.253Z,10.50
2023-02-18T09:06:07.209Z,10.50
2023-02-18T09:08:34.012Z,10.50
2023-02-18T09:11:04.457Z,10.50
2023-02-18T09:13:31.884Z,10.40
2023-02-18T09:16:04.460Z,10.40
2023-02-18T09:18:32.398Z,10.30
2023-02-18T09:21:00.525Z,10.30
2023-02-18T09:23:28.716Z,10.30
2023-02-18T09:25:55.755Z,10.30
2023-02-18T09:28:22.859Z,10.30
2023-02-18T09:30:49.682Z,10.30
2023-02-18T09:33:16.952Z,10.20
2023-02-18T09:35:45.695Z,10.30
2023-02-18T09:38:15.335Z,10.20
2023-02-18T09:40:53.621Z,10.20
2023-02-18T09:43:32.059Z,10.20
2023-02-18T09:46:00.301Z,10.10
2023-02-18T09:48:31.190Z,10.20
2023-02-18T09:50:58.147Z,10.20
2023-02-18T09:53:25.750Z,10.20
2023-02-18T09:55:54.871Z,10.20
2023-02-18T09:58:25.867Z,10.20
2023-02-18T10:01:08.348Z,10.20
2023-02-18T10:03:35.311Z,10.20
2023-02-18T10:06:15.900Z,10.20
2023-02-18T10:08:48.467Z,10.20
2023-02-18T10:11:35.483Z,10.10
2023-02-18T10:14:04.075Z,10.10
2023-02-18T10:16:31.195Z,10.10
2023-02-18T10:19:01.142Z,10.10
2023-02-18T10:21:31.360Z,10.20
2023-02-18T10:24:17.568Z,10.20
2023-02-18T10:26:44.213Z,10.20
2023-02-18T10:29:16.854Z,10.30
2023-02-18T10:31:53.427Z,10.20
2023-02-18T10:34:28.567Z,10.30
2023-02-18T10:37:24.492Z,10.20
2023-02-18T10:40:13.009Z,10.30
2023-02-18T10:43:13.904Z,10.30
2023-02-18T10:45:48.703Z,10.40
2023-02-18T10:48:52.899Z,10.50
2023-02-18T10:51:25.938Z,10.60
2023-02-18T10:53:53.811Z,10.60
2023-02-18T10:56:35.346Z,10.80
2023-02-18T10:59:20.348Z,10.80
2023-02-18T11:01:58.538Z,10.90
2023-02-18T11:04:44.095Z,11.00
2023-02-18T11:07:21.248Z,11.20
2023-02-18T11:09:56.195Z,11.30
2023-02-18T11:12:27.399Z,11.30
2023-02-18T11:15:17.047Z,11.40
2023-02-18T11:17:48.664Z,11.40
2023-02-18T11:20:30.506Z,11.40
2023-02-18T11:22:59.576Z,11.50
2023-02-18T11:25:33.144Z,11.50
2023-02-18T11:28:03.221Z,11.60
2023-02-18T11:30:46.800Z,11.70
2023-02-18T11:33:42.453Z,11.90
2023-02-18T11:36:29.934Z,12.00
2023-02-18T11:38:59.310Z,12.20
2023-02-18T11:41:39.749Z,12.30
2023-02-18T11:44:17.956Z,12.40
2023-02-18T11:47:20.080Z,12.50
2023-02-18T11:50:01.317Z,12.50
2023-02-18T11:52:34.135Z,12.60
2023-02-18T11:55:30.617Z,12.50
2023-02-18T11:58:00.186Z,12.40
2023-02-18T12:00:47.746Z,12.40
2023-02-18T12:03:21.447Z,12.30
2023-02-18T12:05:48.653Z,12.30
2023-02-18T12:08:24.220Z,12.30
2023-02-18T12:11:00.108Z,12.40
2023-02-18T12:13:33.195Z,12.40
2023-02-18T12:16:26.698Z,12.40
2023-02-18T12:19:17.800Z,12.40
2023-02-18T12:22:02.972Z,12.50
2023-02-18T12:24:35.778Z,12.60
2023-02-18T12:27:28.235Z,12.60
2023-02-18T12:30:05.590Z,12.70
2023-02-18T12:32:46.377Z,12.60
2023-02-18T12:35:40.110Z,12.60
2023-02-18T12:38:44.531Z,12.60
2023-02-18T12:41:39.780Z,12.60
2023-02-18T12:44:12.229Z,12.60
2023-02-18T12:46:57.275Z,12.60
2023-02-18T12:49:47.659Z,12.70
2023-02-18T12:52:53.030Z,12.80
2023-02-18T12:55:35.080Z,12.80
2023-02-18T12:58:28.625Z,12.80
2023-02-18T13:01:21.386Z,12.80
2023-02-18T13:04:21.793Z,12.80
2023-02-18T13:07:23.624Z,12.80
2023-02-18T13:10:21.589Z,12.90
2023-02-18T13:13:12.578Z,12.90
2023-02-18T13:15:54.976Z,13.00
2023-02-18T13:18:28.167Z,13.10
2023-02-18T13:21:07.538Z,13.10
2023-02-18T13:23:51.892Z,13.10
2023-02-18T13:26:21.076Z,13.20
2023-02-18T13:29:05.712Z,13.20
2023-02-18T13:31:55.953Z,13.20
2023-02-18T13:34:25.656Z,13.10
2023-02-18T13:37:03.555Z,13.10
2023-02-18T13:39:31.322Z,13.10
2023-02-18T13:42:24.421Z,13.00
2023-02-18T13:44:56.794Z,13.10
2023-02-18T13:47:35.653Z,12.90
2023-02-18T13:50:14.880Z,12.90
2023-02-18T13:52:41.754Z,12.90
2023-02-18T13:55:20.386Z,12.90
2023-02-18T13:57:54.593Z,12.90
2023-02-18T14:00:34.356Z,12.90
2023-02-18T14:03:35.976Z,12.90
2023-02-18T14:06:14.404Z,12.90
2023-02-18T14:08:41.335Z,12.90
2023-02-18T14:11:14.314Z,12.90
2023-02-18T14:13:56.010Z,12.90
2023-02-18T14:16:22.760Z,13.00
2023-02-18T14:18:59.738Z,13.00
2023-02-18T14:21:43.740Z,13.00
2023-02-18T14:24:11.920Z,13.00
2023-02-18T14:26:48.620Z,13.10
2023-02-18T14:29:27.358Z,13.10
2023-02-18T14:32:01.952Z,13.10
2023-02-18T14:35:00.866Z,13.10
2023-02-18T14:37:57.500Z,13.10
2023-02-18T14:40:33.821Z,13.00
2023-02-18T14:43:19.016Z,13.00
2023-02-18T14:46:25.317Z,13.00
2023-02-18T14:49:37.383Z,13.00
2023-02-18T14:52:06.610Z,13.00
2023-02-18T14:54:33.594Z,12.90
2023-02-18T14:57:17.043Z,12.90
2023-02-18T14:59:45.672Z,12.90
2023-02-18T15:02:23.580Z,12.90
2023-02-18T15:04:50.656Z,12.90
2023-02-18T15:07:20.796Z,12.90
2023-02-18T15:09:54.190Z,12.90
2023-02-18T15:12:25.620Z,12.80
2023-02-18T15:14:54.638Z,12.80
2023-02-18T15:17:25.048Z,12.80
2023-02-18T15:19:55.552Z,12.80
2023-02-18T15:22:24.493Z,12.70
2023-02-18T15:24:53.799Z,12.70
2023-02-18T15:27:24.657Z,12.70
2023-02-18T15:30:29.154Z,12.70
2023-02-18T15:32:58.584Z,12.70
2023-02-18T15:35:32.917Z,12.70
2023-02-18T15:38:01.274Z,12.70
2023-02-18T15:40:31.945Z,12.70
2023-02-18T15:43:02.111Z,12.70
2023-02-18T15:45:38.934Z,12.70
2023-02-18T15:48:06.158Z,12.60
2023-02-18T15:50:38.461Z,12.60
2023-02-18T15:53:13.843Z,12.60
2023-02-18T15:55:43.105Z,12.60
2023-02-18T15:58:21.204Z,12.60
2023-02-18T16:00:52.612Z,12.50
2023-02-18T16:03:28.824Z,12.50
2023-02-18T16:06:19.429Z,12.40
2023-02-18T16:09:18.217Z,12.40
2023-02-18T16:12:02.069Z,12.50
2023-02-18T16:14:46.326Z,12.40
2023-02-18T16:17:12.970Z,12.40
2023-02-18T16:19:51.634Z,12.40
2023-02-18T16:22:43.096Z,12.30
2023-02-18T16:25:17.661Z,12.30
2023-02-18T16:28:17.316Z,12.20
2023-02-18T16:30:46.089Z,12.20
2023-02-18T16:33:13.013Z,12.10
2023-02-18T16:35:49.666Z,12.10
2023-02-18T16:38:20.245Z,12.10
2023-02-18T16:40:47.013Z,12.10
2023-02-18T16:43:16.362Z,12.00
2023-02-18T16:45:56.018Z,12.00
2023-02-18T16:48:40.612Z,12.00
2023-02-18T16:51:13.656Z,12.00
2023-02-18T16:53:40.429Z,11.90
2023-02-18T16:56:18.203Z,11.90
2023-02-18T16:58:45.208Z,11.90
2023-02-18T17:01:29.661Z,11.90
2023-02-18T17:04:00.936Z,11.90
2023-02-18T17:06:28.979Z,11.80
2023-02-18T17:08:56.069Z,11.80
2023-02-18T17:11:34.540Z,11.80
2023-02-18T17:14:04.903Z,11.80
2023-02-18T17:16:31.868Z,11.80
2023-02-18T17:18:58.533Z,11.80
2023-02-18T17:21:25.858Z,11.90
2023-02-18T17:23:52.784Z,11.80
2023-02-18T17:26:25.396Z,11.90
2023-02-18T17:28:53.233Z,11.90
2023-02-18T17:31:55.086Z,11.90
2023-02-18T17:34:27.757Z,11.90
2023-02-18T17:36:54.503Z,12.00
2023-02-18T17:39:21.533Z,11.90
2023-02-18T17:41:48.572Z,12.00
2023-02-18T17:44:15.595Z,12.00
2023-02-18T17:46:42.360Z,11.90
2023-02-18T17:49:09.383Z,11.90
2023-02-18T17:51:38.233Z,11.90
2023-02-18T17:54:19.731Z,11.90
2023-02-18T17:56:46.925Z,11.90
2023-02-18T17:59:14.090Z,11.90
2023-02-18T18:01:41.034Z,11.90
2023-02-18T18:04:16.282Z,11.90
2023-02-18T18:06:43.523Z,11.90
2023-02-18T18:09:10.332Z,11.90
2023-02-18T18:11:37.788Z,11.90
2023-02-18T18:14:04.683Z,11.80
2023-02-18T18:16:31.397Z,11.80
2023-02-18T18:18:58.138Z,11.80
2023-02-18T18:21:35.513Z,11.80
2023-02-18T18:24:02.355Z,11.80
2023-02-18T18:26:29.869Z,11.70
2023-02-18T18:28:56.571Z,11.80
2023-02-18T18:31:23.523Z,11.80
2023-02-18T18:33:52.990Z,11.80
2023-02-18T18:36:21.388Z,11.80
2023-02-18T18:38:48.069Z,11.80
2023-02-18T18:41:17.365Z,11.70
2023-02-18T18:43:44.485Z,11.70
2023-02-18T18:46:11.285Z,11.70
2023-02-18T18:48:38.079Z,11.70
2023-02-18T18:51:05.282Z,11.70
2023-02-18T18:53:35.471Z,11.60
2023-02-18T18:56:07.120Z,11.60
2023-02-18T18:58:34.088Z,11.60
2023-02-18T19:01:03.514Z,11.50
2023-02-18T19:03:31.307Z,11.50
2023-02-18T19:05:58.173Z,11.50
2023-02-18T19:08:25.132Z,11.40
2023-02-18T19:10:54.093Z,11.40
2023-02-18T19:13:24.292Z,11.30
2023-02-18T19:15:59.153Z,11.30
2023-02-18T19:18:25.883Z,11.20
2023-02-18T19:20:52.539Z,11.10
2023-02-18T19:23:19.251Z,11.10
2023-02-18T19:25:45.980Z,11.00
2023-02-18T19:28:13.893Z,11.10
2023-02-18T19:30:44.079Z,11.00
2023-02-18T19:33:13.175Z,11.10
2023-02-18T19:35:41.330Z,11.10
2023-02-18T19:38:12.422Z,11.10
2023-02-18T19:40:39.530Z,11.10
2023-02-18T19:43:07.319Z,11.00
2023-02-18T19:45:35.365Z,11.00
2023-02-18T19:48:02.061Z,10.90
2023-02-18T19:50:32.336Z,10.90
2023-02-18T19:52:59.954Z,10.90
2023-02-18T19:55:26.692Z,11.00
2023-02-18T19:57:53.750Z,11.00
2023-02-18T20:00:22.504Z,11.00
2023-02-18T20:02:50.452Z,11.00
2023-02-18T20:05:17.835Z,10.90
2023-02-18T20:07:46.690Z,11.00
2023-02-18T20:10:16.628Z,11.00
2023-02-18T20:12:43.860Z,10.90
2023-02-18T20:15:10.667Z,10.90
2023-02-18T20:17:39.267Z,10.90
2023-02-18T20:20:06.573Z,10.90
2023-02-18T20:22:33.376Z,10.80
2023-02-18T20:25:00.185Z,10.90
2023-02-18T20:27:26.862Z,10.90
2023-02-18T20:29:53.547Z,10.90
2023-02-18T20:32:20.271Z,10.90
2023-02-18T20:34:47.022Z,10.90
2023-02-18T20:37:13.768Z,10.90
2023-02-18T20:39:40.548Z,10.90
2023-02-18T20:42:16.000Z,10.90
2023-02-18T20:44:43.823Z,10.90
2023-02-18T20:47:12.777Z,10.90
2023-02-18T20:49:40.583Z,10.80
2023-02-18T20:52:08.559Z,10.90
2023-02-18T20:54:35.281Z,10.90
2023-02-18T20:57:02.258Z,10.90
2023-02-18T20:59:35.649Z,10.90
2023-02-18T21:02:02.763Z,10.80
2023-02-18T21:04:29.547Z,10.90
2023-02-18T21:06:56.366Z,10.90
2023-02-18T21:09:23.104Z,10.90
2023-02-18T21:11:49.769Z,10.90
2023-02-18T21:14:16.474Z,10.80
2023-02-18T21:16:43.270Z,10.90
2023-02-18T21:19:15.412Z,10.80
2023-02-18T21:21:42.931Z,10.80
2023-02-18T21:24:10.003Z,10.80
2023-02-18T21:26:37.104Z,10.80
2023-02-18T21:29:07.910Z,10.80
2023-02-18T21:31:40.002Z,10.80
2023-02-18T21:34:09.885Z,10.80
2023-02-18T21:36:36.566Z,10.70
2023-02-18T21:39:06.570Z,10.70
2023-02-18T21:41:34.869Z,10.70
2023-02-18T21:44:02.489Z,10.70
2023-02-18T21:46:31.705Z,10.70
2023-02-18T21:49:02.082Z,10.70
2023-02-18T21:51:51.906Z,10.70
2023-02-18T21:54:20.870Z,10.70
2023-02-18T21:56:47.997Z,10.70
2023-02-18T21:59:14.919Z,10.70
2023-02-18T22:01:41.758Z,10.70
2023-02-18T22:04:08.612Z,10.70
2023-02-18T22:06:35.289Z,10.60
2023-02-18T22:09:03.362Z,10.60
2023-02-18T22:11:30.891Z,10.70
2023-02-18T22:13:57.938Z,10.70
2023-02-18T22:16:28.040Z,10.70
2023-02-18T22:18:57.965Z,10.70
2023-02-18T22:21:25.543Z,10.70
2023-02-18T22:23:52.659Z,10.70
2023-02-18T22:26:19.318Z,10.70
2023-02-18T22:28:51.827Z,10.70
2023-02-18T22:31:19.128Z,10.70
2023-02-18T22:33:48.854Z,10.70
2023-02-18T22:36:15.749Z,10.70
2023-02-18T22:38:42.655Z,10.70
2023-02-18T22:41:12.436Z,10.70
2023-02-18T22:43:39.631Z,10.70
2023-02-18T22:46:08.501Z,10.70
2023-02-18T22:48:37.420Z,10.70
2023-02-18T22:51:05.425Z,10.70
2023-02-18T22:53:32.420Z,10.70
2023-02-18T22:56:03.528Z,10.80
2023-02-18T22:58:30.439Z,10.80
2023-02-18T23:00:57.458Z,10.80
2023-02-18T23:03:25.401Z,10.80
2023-02-18T23:05:52.054Z,10.80
2023-02-18T23:08:18.800Z,10.80
2023-02-18T23:10:45.671Z,10.80
2023-02-18T23:13:12.482Z,10.80
2023-02-18T23:15:39.189Z,10.80
2023-02-18T23:18:05.932Z,10.80
2023-02-18T23:20:51.101Z,10.80
2023-02-18T23:23:17.797Z,10.90
2023-02-18T23:25:45.599Z,10.90
2023-02-18T23:28:12.265Z,10.90
2023-02-18T23:30:39.037Z,10.80
2023-02-18T23:33:05.845Z,10.80
2023-02-18T23:35:32.618Z,10.80
2023-02-18T23:38:05.565Z,10.90
2023-02-18T23:40:32.810Z,10.80
2023-02-18T23:42:59.554Z,10.80
2023-02-18T23:45:26.414Z,10.80
2023-02-18T23:47:53.182Z,10.80
2023-02-18T23:50:19.946Z,10.80
2023-02-18T23:52:48.654Z,10.80
2023-02-18T23:55:15.625Z,10.80
2023-02-18T23:57:42.291Z,10.70
